createdAt,value
2018-07-04T00:00:46.762Z,29.7
2018-07-04T00:02:49.598Z,29.8
2018-07-04T00:04:52.441Z,29.7
2018-07-04T00:06:55.288Z,29.7
2018-07-04T00:08:58.129Z,29.7
2018-07-04T00:11:00.968Z,29.7
2018-07-04T00:13:03.812Z,29.7
2018-07-04T00:15:06.664Z,29.7
2018-07-04T00:17:09.509Z,29.7
2018-07-04T00:19:12.347Z,29.7
2018-07-04T00:21:15.192Z,29.6
2018-07-04T00:23:18.034Z,29.6
2018-07-04T00:25:20.872Z,29.6
2018-07-04T00:27:23.771Z,29.6
2018-07-04T00:29:26.615Z,29.6
2018-07-04T00:31:29.456Z,29.6
2018-07-04T00:33:32.302Z,29.6
2018-07-04T00:35:35.141Z,29.5
2018-07-04T00:37:37.982Z,29.5
2018-07-04T00:39:40.824Z,29.5
2018-07-04T00:41:43.664Z,29.5
2018-07-04T00:43:46.511Z,29.5
2018-07-04T00:45:49.352Z,29.5
2018-07-04T00:47:52.194Z,29.5
2018-07-04T00:49:55.035Z,29.5
2018-07-04T00:51:57.874Z,29.5
2018-07-04T00:54:00.717Z,29.5
2018-07-04T00:56:03.686Z,29.5
2018-07-04T00:58:06.523Z,29.5
2018-07-04T01:00:09.368Z,29.4
2018-07-04T01:02:12.209Z,29.4
2018-07-04T01:04:15.124Z,29.4
2018-07-04T01:06:17.971Z,29.4
2018-07-04T01:08:20.809Z,29.4
2018-07-04T01:10:23.656Z,29.4
2018-07-04T01:12:26.496Z,29.4
2018-07-04T01:14:29.337Z,29.4
2018-07-04T01:16:32.194Z,29.4
2018-07-04T01:18:35.028Z,29.5
2018-07-04T01:20:37.935Z,29.4
2018-07-04T01:22:40.779Z,29.4
2018-07-04T01:24:43.621Z,29.5
2018-07-04T01:26:46.463Z,29.4
2018-07-04T01:28:49.303Z,29.5
2018-07-04T01:30:52.142Z,29.5
2018-07-04T01:32:54.989Z,29.5
2018-07-04T01:34:57.826Z,29.5
2018-07-04T01:37:00.673Z,29.5
2018-07-04T01:39:03.514Z,29.5
2018-07-04T01:41:06.357Z,29.5
2018-07-04T01:43:09.205Z,29.5
2018-07-04T01:45:12.042Z,29.5
2018-07-04T01:47:14.884Z,29.5
2018-07-04T01:49:17.782Z,29.5
2018-07-04T01:51:20.617Z,29.5
2018-07-04T01:53:23.465Z,29.5
2018-07-04T01:55:26.307Z,29.5
2018-07-04T01:57:29.144Z,29.5
2018-07-04T01:59:31.994Z,29.5
2018-07-04T02:01:34.831Z,29.5
2018-07-04T02:03:37.674Z,29.5
2018-07-04T02:05:40.516Z,29.4
2018-07-04T02:07:43.355Z,29.5
2018-07-04T02:09:46.204Z,29.5
2018-07-04T02:11:49.044Z,29.4
2018-07-04T02:13:51.883Z,29.4
2018-07-04T02:15:54.727Z,29.4
2018-07-04T02:17:57.566Z,29.4
2018-07-04T02:20:00.412Z,29.4
2018-07-04T02:22:03.264Z,29.3
2018-07-04T02:24:06.109Z,29.4
2018-07-04T02:26:08.961Z,29.3
2018-07-04T02:28:11.805Z,29.3
2018-07-04T02:30:14.744Z,29.3
2018-07-04T02:32:17.578Z,29.3
2018-07-04T02:34:20.420Z,29.3
2018-07-04T02:36:23.266Z,29.3
2018-07-04T02:38:26.109Z,29.3
2018-07-04T02:40:28.947Z,29.3
2018-07-04T02:42:31.796Z,29.3
2018-07-04T02:44:34.635Z,29.3
2018-07-04T02:46:37.478Z,29.3
2018-07-04T02:48:40.320Z,29.3
2018-07-04T02:50:43.159Z,29.3
2018-07-04T02:52:46.003Z,29.3
2018-07-04T02:54:48.844Z,29.3
2018-07-04T02:56:51.733Z,29.2
2018-07-04T02:58:54.599Z,29.3
2018-07-04T03:00:57.468Z,29.3
2018-07-04T03:03:00.319Z,29.3
2018-07-04T03:05:03.157Z,29.3
2018-07-04T03:07:06.044Z,29.3
2018-07-04T03:09:08.883Z,29.2
2018-07-04T03:11:11.726Z,29.2
2018-07-04T03:13:14.567Z,29.2
2018-07-04T03:15:17.406Z,29.1
2018-07-04T03:17:20.252Z,29.2
2018-07-04T03:19:23.096Z,29.2
2018-07-04T03:21:26.168Z,29.2
2018-07-04T03:23:29.058Z,29.2
2018-07-04T03:25:31.892Z,29.2
2018-07-04T03:27:34.736Z,29.2
2018-07-04T03:29:37.590Z,29.3
2018-07-04T03:31:40.425Z,29.3
2018-07-04T03:33:43.265Z,29.3
2018-07-04T03:35:46.112Z,29.3
2018-07-04T03:37:48.951Z,29.3
2018-07-04T03:39:51.804Z,29.3
2018-07-04T03:41:54.642Z,29.3
2018-07-04T03:43:57.482Z,29.4
2018-07-04T03:46:00.329Z,29.4
2018-07-04T03:48:03.196Z,29.3
2018-07-04T03:50:08.905Z,29.3
2018-07-04T03:52:11.746Z,29.3
2018-07-04T03:54:14.587Z,29.3
2018-07-04T03:56:17.435Z,29.3
2018-07-04T03:58:20.280Z,29.4
2018-07-04T04:00:23.120Z,29.3
2018-07-04T04:02:28.620Z,29.4
2018-07-04T04:04:31.463Z,29.4
2018-07-04T04:06:34.305Z,29.3
2018-07-04T04:08:37.180Z,29.4
2018-07-04T04:10:40.027Z,29.3
2018-07-04T04:12:42.869Z,29.3
2018-07-04T04:14:45.706Z,29.3
2018-07-04T04:16:48.599Z,29.3
2018-07-04T04:18:51.433Z,29.3
2018-07-04T04:20:54.274Z,29.3
2018-07-04T04:22:57.126Z,29.2
2018-07-04T04:25:00.023Z,29.3
2018-07-04T04:27:02.899Z,29.3
2018-07-04T04:29:05.799Z,29.3
2018-07-04T04:31:08.854Z,29.2
2018-07-04T04:31:51.129Z,29
2018-07-04T04:33:54.019Z,28.3
2018-07-04T04:35:56.989Z,27.9
2018-07-04T04:37:59.833Z,27.7
2018-07-04T04:40:02.671Z,27.4
2018-07-04T04:42:05.513Z,27.2
2018-07-04T04:44:08.358Z,27.2
2018-07-04T04:46:11.198Z,27.1
2018-07-04T04:48:14.041Z,27.1
2018-07-04T04:50:16.883Z,26.9
2018-07-04T04:52:19.729Z,26.9
2018-07-04T04:54:23.507Z,27
2018-07-04T04:56:26.343Z,27.2
2018-07-04T04:58:29.189Z,27.2
2018-07-04T05:00:32.036Z,27.3
2018-07-04T05:02:34.871Z,27.3
2018-07-04T05:04:37.744Z,27.4
2018-07-04T05:06:40.582Z,27.4
2018-07-04T05:08:43.422Z,27.4
2018-07-04T05:10:46.265Z,27.4
2018-07-04T05:12:49.105Z,27.4
2018-07-04T05:14:51.947Z,27.5
2018-07-04T05:16:54.795Z,27.5
2018-07-04T05:18:57.632Z,27.5
2018-07-04T05:21:00.521Z,27.5
2018-07-04T05:23:03.466Z,27.5
2018-07-04T05:25:06.310Z,27.5
2018-07-04T05:27:09.153Z,27.5
2018-07-04T05:29:11.996Z,27.5
2018-07-04T05:31:14.874Z,27.5
2018-07-04T05:33:17.707Z,27.5
2018-07-04T05:35:20.568Z,27.5
2018-07-04T05:37:23.412Z,27.5
2018-07-04T05:39:26.250Z,27.5
2018-07-04T05:41:29.091Z,27.5
2018-07-04T05:43:31.939Z,27.5
2018-07-04T05:45:34.778Z,27.5
2018-07-04T05:47:37.640Z,27.5
2018-07-04T05:49:40.669Z,27.5
2018-07-04T05:51:43.509Z,27.5
2018-07-04T05:53:46.353Z,27.5
2018-07-04T05:55:49.190Z,27.5
2018-07-04T05:57:52.066Z,27.5
2018-07-04T05:59:55.207Z,27.5
2018-07-04T06:01:58.064Z,27.6
2018-07-04T06:04:00.916Z,27.6
2018-07-04T06:06:03.750Z,27.6
2018-07-04T06:08:06.591Z,27.6
2018-07-04T06:10:09.441Z,27.6
2018-07-04T06:12:12.278Z,27.6
2018-07-04T06:14:15.126Z,27.6
2018-07-04T06:16:17.978Z,27.6
2018-07-04T06:18:20.896Z,27.6
2018-07-04T06:20:26.877Z,27.6
2018-07-04T06:22:29.717Z,27.6
2018-07-04T06:24:32.594Z,27.6
2018-07-04T06:26:35.435Z,27.6
2018-07-04T06:28:38.278Z,27.6
2018-07-04T06:30:41.118Z,27.6
2018-07-04T06:32:43.960Z,27.6
2018-07-04T06:34:47.033Z,27.6
2018-07-04T06:36:49.896Z,27.6
2018-07-04T06:38:52.737Z,27.6
2018-07-04T06:40:55.604Z,27.6
2018-07-04T06:42:58.440Z,27.6
2018-07-04T06:45:01.283Z,27.6
2018-07-04T06:47:04.181Z,27.6
2018-07-04T06:49:07.073Z,27.6
2018-07-04T06:51:10.010Z,27.6
2018-07-04T06:53:12.852Z,27.6
2018-07-04T06:55:15.696Z,27.6
2018-07-04T06:57:18.533Z,27.6
2018-07-04T06:59:21.379Z,27.6
2018-07-04T07:01:24.219Z,27.6
2018-07-04T07:03:27.089Z,27.6
2018-07-04T07:05:29.943Z,27.6
2018-07-04T07:07:32.784Z,27.6
2018-07-04T07:09:35.655Z,27.6
2018-07-04T07:11:38.489Z,27.6
2018-07-04T07:13:41.331Z,27.6
2018-07-04T07:15:44.180Z,27.6
2018-07-04T07:17:47.023Z,27.6
2018-07-04T07:19:49.863Z,27.7
2018-07-04T07:21:52.707Z,27.7
2018-07-04T07:23:55.548Z,27.7
2018-07-04T07:25:58.390Z,27.6
2018-07-04T07:28:01.282Z,27.6
2018-07-04T07:30:04.124Z,27.7
2018-07-04T07:32:07.008Z,27.6
2018-07-04T07:34:10.222Z,27.6
2018-07-04T07:36:13.997Z,27.7
2018-07-04T07:38:16.847Z,27.7
2018-07-04T07:40:19.692Z,27.7
2018-07-04T07:42:22.566Z,27.7
2018-07-04T07:44:25.422Z,27.7
2018-07-04T07:46:28.268Z,27.7
2018-07-04T07:48:31.112Z,27.7
2018-07-04T07:50:33.962Z,27.7
2018-07-04T07:52:36.812Z,27.7
2018-07-04T07:54:39.656Z,27.7
2018-07-04T07:56:42.495Z,27.7
2018-07-04T07:58:45.351Z,27.7
2018-07-04T08:00:48.192Z,27.7
2018-07-04T08:02:51.033Z,27.7
2018-07-04T08:04:53.887Z,27.7
2018-07-04T08:06:56.722Z,27.7
2018-07-04T08:08:59.567Z,27.7
2018-07-04T08:11:02.418Z,27.7
2018-07-04T08:13:05.258Z,27.7
2018-07-04T08:15:08.116Z,27.7
2018-07-04T08:17:10.977Z,27.7
2018-07-04T08:19:13.828Z,27.7
2018-07-04T08:21:16.687Z,27.7
2018-07-04T08:23:19.538Z,27.7
2018-07-04T08:25:22.390Z,27.7
2018-07-04T08:27:25.243Z,27.7
2018-07-04T08:29:28.093Z,27.7
2018-07-04T08:31:30.939Z,27.7
2018-07-04T08:33:33.803Z,27.7
2018-07-04T08:35:37.000Z,27.7
2018-07-04T08:37:39.849Z,27.7
2018-07-04T08:39:42.691Z,27.7
2018-07-04T08:41:45.545Z,27.7
2018-07-04T08:43:48.389Z,27.7
2018-07-04T08:45:51.266Z,27.7
2018-07-04T08:47:54.111Z,27.7
2018-07-04T08:49:56.966Z,27.7
2018-07-04T08:51:59.830Z,27.8
2018-07-04T08:54:02.699Z,27.7
2018-07-04T08:56:05.550Z,27.7
2018-07-04T08:58:08.404Z,27.7
2018-07-04T09:00:11.249Z,27.7
2018-07-04T09:02:14.126Z,27.7
2018-07-04T09:04:16.983Z,27.8
2018-07-04T09:06:19.821Z,27.8
2018-07-04T09:08:22.678Z,27.7
2018-07-04T09:10:25.519Z,27.8
2018-07-04T09:12:28.404Z,27.8
2018-07-04T09:14:32.198Z,27.8
2018-07-04T09:16:35.049Z,27.8
2018-07-04T09:18:37.891Z,27.8
2018-07-04T09:20:40.744Z,27.7
2018-07-04T09:22:43.583Z,27.7
2018-07-04T09:24:46.440Z,27.8
2018-07-04T09:26:49.282Z,27.8
2018-07-04T09:28:53.119Z,27.8
2018-07-04T09:30:55.968Z,27.8
2018-07-04T09:32:58.932Z,27.8
2018-07-04T09:35:01.785Z,27.8
2018-07-04T09:37:04.637Z,27.8
2018-07-04T09:39:07.514Z,27.8
2018-07-04T09:41:10.348Z,27.8
2018-07-04T09:43:13.202Z,27.8
2018-07-04T09:45:16.986Z,27.8
2018-07-04T09:47:19.847Z,27.8
2018-07-04T09:49:22.688Z,27.8
2018-07-04T09:51:25.549Z,27.8
2018-07-04T09:53:31.103Z,27.8
2018-07-04T09:55:33.957Z,27.8
2018-07-04T09:57:36.811Z,27.8
2018-07-04T09:59:39.663Z,27.8
2018-07-04T10:01:48.439Z,27.8
2018-07-04T10:03:51.290Z,27.8
2018-07-04T10:05:54.168Z,27.8
2018-07-04T10:07:57.014Z,27.8
2018-07-04T10:09:59.865Z,27.8
2018-07-04T10:12:02.707Z,27.8
2018-07-04T10:14:05.557Z,27.8
2018-07-04T10:16:08.432Z,27.8
2018-07-04T10:18:11.292Z,27.8
2018-07-04T10:20:14.247Z,27.8
2018-07-04T10:22:17.122Z,27.8
2018-07-04T10:24:19.959Z,27.8
2018-07-04T10:33:47.504Z,27.8
2018-07-04T10:35:50.356Z,27.8
2018-07-04T10:37:53.220Z,27.8
2018-07-04T10:39:56.134Z,27.8
2018-07-04T10:41:59.008Z,27.8
2018-07-04T10:44:01.886Z,27.8
2018-07-04T10:46:04.729Z,27.9
2018-07-04T10:48:07.567Z,27.9
2018-07-04T10:50:10.424Z,27.9
2018-07-04T10:52:13.265Z,27.9
2018-07-04T10:54:17.132Z,27.9
2018-07-04T10:56:19.976Z,27.9
2018-07-04T10:58:22.878Z,27.9
2018-07-04T11:00:25.728Z,27.9
2018-07-04T11:02:28.583Z,27.9
2018-07-04T11:04:31.436Z,27.9
2018-07-04T11:06:34.401Z,27.9
2018-07-04T11:08:37.245Z,27.9
2018-07-04T11:10:40.136Z,27.9
2018-07-04T11:12:42.971Z,27.9
2018-07-04T11:14:45.815Z,27.9
2018-07-04T11:16:48.720Z,27.9
2018-07-04T11:18:51.842Z,27.9
2018-07-04T11:20:54.698Z,27.9
2018-07-04T11:22:57.555Z,27.9
2018-07-04T11:25:00.397Z,27.9
2018-07-04T11:27:03.260Z,27.9
2018-07-04T11:29:06.106Z,27.9
2018-07-04T11:31:08.945Z,27.9
2018-07-04T11:33:11.837Z,27.9
2018-07-04T11:35:14.672Z,27.9
2018-07-04T11:37:17.575Z,27.9
2018-07-04T11:39:20.425Z,27.9
2018-07-04T11:41:23.271Z,27.9
2018-07-04T11:43:26.125Z,27.9
2018-07-04T11:45:28.982Z,27.9
2018-07-04T11:47:31.833Z,27.9
2018-07-04T11:49:34.749Z,27.9
2018-07-04T11:51:37.781Z,27.9
2018-07-04T11:53:40.640Z,27.9
2018-07-04T11:55:43.496Z,27.9
2018-07-04T11:57:46.346Z,27.9
2018-07-04T11:59:49.202Z,27.9
2018-07-04T12:01:52.102Z,27.9
2018-07-04T12:03:55.248Z,27.9
2018-07-04T12:05:58.102Z,27.9
2018-07-04T12:08:00.945Z,27.9
2018-07-04T12:10:03.835Z,27.9
2018-07-04T12:12:06.671Z,27.9
2018-07-04T12:14:09.533Z,27.9
2018-07-04T12:16:12.378Z,27.9
2018-07-04T12:18:15.251Z,27.9
2018-07-04T12:20:18.121Z,27.9
2018-07-04T12:22:20.959Z,27.9
2018-07-04T12:24:23.802Z,28
2018-07-04T12:26:26.687Z,27.9
2018-07-04T12:28:29.534Z,28
2018-07-04T12:30:33.369Z,28
2018-07-04T12:32:36.225Z,28
2018-07-04T12:34:39.103Z,28
2018-07-04T12:36:41.957Z,28
2018-07-04T12:38:44.799Z,28
2018-07-04T12:40:47.653Z,28
2018-07-04T12:42:50.500Z,28
2018-07-04T12:44:53.342Z,28
2018-07-04T12:46:56.211Z,28
2018-07-04T12:48:59.117Z,28
2018-07-04T12:51:01.980Z,28
2018-07-04T12:53:04.966Z,28
2018-07-04T12:55:07.825Z,28
2018-07-04T12:57:10.692Z,28
2018-07-04T12:59:13.534Z,28
2018-07-04T13:01:16.380Z,28
2018-07-04T13:03:19.221Z,28
2018-07-04T13:05:22.180Z,28
2018-07-04T13:07:25.195Z,28
2018-07-04T13:09:28.075Z,28
2018-07-04T13:11:31.118Z,28
2018-07-04T13:13:33.970Z,28
2018-07-04T13:15:36.811Z,28
2018-07-04T13:17:39.666Z,28
2018-07-04T13:19:42.527Z,28
2018-07-04T13:21:45.766Z,28
2018-07-04T13:23:48.668Z,28
2018-07-04T13:25:51.728Z,28
2018-07-04T13:27:55.310Z,28
2018-07-04T13:29:58.157Z,28
2018-07-04T13:32:01.035Z,28
2018-07-04T13:34:04.193Z,28
2018-07-04T13:36:07.038Z,28
2018-07-04T13:38:09.886Z,28.1
2018-07-04T13:40:12.725Z,28.1
2018-07-04T13:42:15.568Z,28.1
2018-07-04T13:44:18.468Z,28.1
2018-07-04T13:46:21.312Z,28.1
2018-07-04T13:48:24.162Z,28.1
2018-07-04T13:50:27.001Z,28.1
2018-07-04T13:52:29.841Z,28.1
2018-07-04T13:54:32.688Z,28.1
2018-07-04T13:56:35.533Z,28.1
2018-07-04T13:58:38.375Z,28.1
2018-07-04T14:00:41.220Z,28.1
2018-07-04T14:02:44.161Z,28.1
2018-07-04T14:04:47.565Z,28.1
2018-07-04T14:06:50.408Z,28.1
2018-07-04T14:08:53.254Z,28.1
2018-07-04T14:10:56.098Z,28.1
2018-07-04T14:12:58.938Z,28.1
2018-07-04T14:15:01.790Z,28.1
2018-07-04T14:17:04.635Z,28.1
2018-07-04T14:19:07.517Z,28.1
2018-07-04T14:21:10.380Z,28.1
2018-07-04T14:23:13.213Z,28.1
2018-07-04T14:25:16.058Z,28.1
2018-07-04T14:27:18.899Z,28.1
2018-07-04T14:29:21.740Z,28.1
2018-07-04T14:31:24.587Z,28.1
2018-07-04T14:33:27.426Z,28.1
2018-07-04T14:35:30.269Z,28.1
2018-07-04T14:37:33.153Z,28.1
2018-07-04T14:39:35.993Z,28.1
2018-07-04T14:41:38.840Z,28.1
2018-07-04T14:43:41.690Z,28.1
2018-07-04T14:45:44.528Z,28.1
2018-07-04T14:47:47.374Z,28.1
2018-07-04T14:49:50.214Z,28.1
2018-07-04T14:51:53.060Z,28.1
2018-07-04T14:53:55.959Z,28.1
2018-07-04T14:55:58.798Z,28.1
2018-07-04T14:58:01.644Z,28.1
2018-07-04T15:00:04.484Z,28.1
2018-07-04T15:02:07.379Z,28.1
2018-07-04T15:04:10.882Z,28.1
2018-07-04T15:06:13.799Z,28.1
2018-07-04T15:08:16.643Z,28.1
2018-07-04T15:10:20.415Z,28.1
2018-07-04T15:12:23.260Z,28.1
2018-07-04T15:14:26.105Z,28.1
2018-07-04T15:16:28.978Z,28.1
2018-07-04T15:18:32.145Z,28.1
2018-07-04T15:20:34.985Z,28.1
2018-07-04T15:22:37.826Z,28
2018-07-04T15:24:40.673Z,28
2018-07-04T15:26:43.511Z,28
2018-07-04T15:28:46.353Z,28
2018-07-04T15:30:49.203Z,28
2018-07-04T15:32:52.043Z,28
2018-07-04T15:34:54.888Z,28.1
2018-07-04T15:36:57.726Z,28.1
2018-07-04T15:39:00.585Z,28.1
2018-07-04T15:41:03.676Z,28.1
2018-07-04T15:43:06.690Z,28.1
2018-07-04T15:45:09.560Z,28.1
2018-07-04T15:47:12.401Z,28.1
2018-07-04T15:49:15.240Z,28.1
2018-07-04T15:51:18.089Z,28.1
2018-07-04T15:53:20.932Z,28.1
2018-07-04T15:55:23.816Z,28.1
2018-07-04T15:57:26.654Z,28.2
2018-07-04T15:59:29.521Z,28.2
2018-07-04T16:01:32.724Z,28.2
2018-07-04T16:03:35.566Z,28.1
2018-07-04T16:05:38.437Z,28.1
2018-07-04T16:07:42.284Z,28.1
2018-07-04T16:09:45.124Z,28.1
2018-07-04T16:11:47.968Z,28
2018-07-04T16:13:50.899Z,27.9
2018-07-04T16:15:53.995Z,27.9
2018-07-04T16:17:56.839Z,27.9
2018-07-04T16:19:59.692Z,27.9
2018-07-04T16:22:02.565Z,27.9
2018-07-04T16:24:05.439Z,27.9
2018-07-04T16:26:08.284Z,28
2018-07-04T16:28:11.132Z,28.1
2018-07-04T16:30:13.970Z,28
2018-07-04T16:32:16.815Z,28
2018-07-04T16:34:19.663Z,28
2018-07-04T16:36:22.504Z,28
2018-07-04T16:38:25.350Z,28
2018-07-04T16:40:28.191Z,28.1
2018-07-04T16:42:31.034Z,28.1
2018-07-04T16:44:33.884Z,28.1
2018-07-04T16:46:36.756Z,28.2
2018-07-04T16:48:39.624Z,28.2
2018-07-04T16:50:42.474Z,28.2
2018-07-04T16:52:45.319Z,28.2
2018-07-04T16:54:48.161Z,28.2
2018-07-04T16:56:51.003Z,28.1
2018-07-04T16:58:53.851Z,28.1
2018-07-04T17:00:56.692Z,28.1
2018-07-04T17:02:59.535Z,28.1
2018-07-04T17:05:05.121Z,28.1
2018-07-04T17:07:07.960Z,28.2
2018-07-04T17:09:10.805Z,28.2
2018-07-04T17:11:13.654Z,28
2018-07-04T17:13:16.495Z,28
2018-07-04T17:15:19.385Z,27.9
2018-07-04T17:17:22.228Z,27.9
2018-07-04T17:19:25.065Z,27.9
2018-07-04T17:21:27.921Z,28
2018-07-04T17:23:30.763Z,28.1
2018-07-04T17:25:33.599Z,28.3
2018-07-04T17:27:36.460Z,28.4
2018-07-04T17:29:39.308Z,28.4
2018-07-04T17:31:42.183Z,28.4
2018-07-04T17:33:45.137Z,28.5
2018-07-04T17:35:47.982Z,28.6
2018-07-04T17:37:50.830Z,28.6
2018-07-04T17:39:53.671Z,28.7
2018-07-04T17:41:56.514Z,28.8
2018-07-04T17:44:02.232Z,28.8
2018-07-04T17:46:05.066Z,28.9
2018-07-04T17:48:07.925Z,28.9
2018-07-04T17:50:10.768Z,29
2018-07-04T17:52:13.614Z,29.1
2018-07-04T17:54:16.463Z,29.2
2018-07-04T17:56:19.307Z,29.3
2018-07-04T17:58:22.177Z,29.3
2018-07-04T18:00:25.017Z,29.4
2018-07-04T18:02:30.924Z,29.5
2018-07-04T18:04:33.764Z,29.5
2018-07-04T18:06:36.604Z,29.6
2018-07-04T18:08:39.445Z,29.5
2018-07-04T18:10:42.295Z,29.5
2018-07-04T18:12:45.133Z,29.3
2018-07-04T18:14:47.983Z,29.2
2018-07-04T18:16:50.827Z,29.1
2018-07-04T18:18:53.667Z,28.9
2018-07-04T18:20:56.516Z,28.8
2018-07-04T18:22:59.355Z,28.9
2018-07-04T18:25:02.237Z,29
2018-07-04T18:27:05.073Z,29.1
2018-07-04T18:29:07.920Z,29.2
2018-07-04T18:31:10.764Z,29.3
2018-07-04T18:33:13.607Z,29.3
2018-07-04T18:35:16.454Z,29.4
2018-07-04T18:37:19.296Z,29.4
2018-07-04T18:39:22.141Z,29.4
2018-07-04T18:41:27.719Z,29.4
2018-07-04T18:43:30.598Z,29.4
2018-07-04T18:45:33.446Z,29.5
2018-07-04T18:47:36.287Z,29.5
2018-07-04T18:49:39.129Z,29.5
2018-07-04T18:51:42.044Z,29.5
2018-07-04T18:53:45.083Z,29.5
2018-07-04T18:55:48.376Z,29.5
2018-07-04T18:57:51.220Z,29.5
2018-07-04T18:59:54.126Z,29.5
2018-07-04T19:01:56.962Z,29.5
2018-07-04T19:03:59.810Z,29.5
2018-07-04T19:06:02.654Z,29.5
2018-07-04T19:08:06.427Z,29.5
2018-07-04T19:10:09.269Z,29.5
2018-07-04T19:12:12.121Z,29.5
2018-07-04T19:14:14.996Z,29.6
2018-07-04T19:16:17.842Z,29.5
2018-07-04T19:18:20.681Z,29.6
2018-07-04T19:20:23.535Z,29.6
2018-07-04T19:22:26.377Z,29.6
2018-07-04T19:24:29.223Z,29.6
2018-07-04T19:26:32.097Z,29.5
2018-07-04T19:28:34.947Z,29.5
2018-07-04T19:30:37.793Z,29.4
2018-07-04T19:32:40.631Z,29.5
2018-07-04T19:34:43.527Z,29.4
2018-07-04T19:36:46.361Z,29.3
2018-07-04T19:38:49.205Z,29.4
2018-07-04T19:40:52.059Z,29.4
2018-07-04T19:42:54.915Z,29.4
2018-07-04T19:44:57.769Z,29.3
2018-07-04T19:47:00.619Z,29.2
2018-07-04T19:49:03.459Z,29.3
2018-07-04T19:51:06.315Z,29.3
2018-07-04T19:53:11.865Z,29.4
2018-07-04T19:55:14.715Z,29.6
2018-07-04T19:57:17.554Z,29.7
2018-07-04T19:59:20.397Z,29.8
2018-07-04T20:01:23.275Z,29.8
2018-07-04T20:03:26.123Z,29.8
2018-07-04T20:05:28.973Z,29.8
2018-07-04T20:07:31.814Z,29.9
2018-07-04T20:09:34.673Z,29.9
2018-07-04T20:11:37.523Z,29.9
2018-07-04T20:13:40.385Z,29.9
2018-07-04T20:15:43.225Z,29.9
2018-07-04T20:17:46.104Z,29.9
2018-07-04T20:19:48.949Z,29.9
2018-07-04T20:21:51.964Z,29.9
2018-07-04T20:23:55.616Z,29.9
2018-07-04T20:25:58.454Z,29.9
2018-07-04T20:28:01.307Z,29.9
2018-07-04T20:30:04.151Z,29.9
2018-07-04T20:32:06.996Z,29.8
2018-07-04T20:34:09.842Z,29.8
2018-07-04T20:36:12.681Z,29.8
2018-07-04T20:38:15.529Z,29.8
2018-07-04T20:40:18.370Z,29.8
2018-07-04T20:42:21.216Z,29.8
2018-07-04T20:44:24.059Z,29.9
2018-07-04T20:46:26.901Z,30
2018-07-04T20:48:29.741Z,29.9
2018-07-04T20:50:32.591Z,29.8
2018-07-04T20:52:35.428Z,29.9
2018-07-04T20:54:38.324Z,29.9
2018-07-04T20:56:41.163Z,29.9
2018-07-04T20:58:44.007Z,30
2018-07-04T21:00:46.865Z,30
2018-07-04T21:02:49.702Z,30
2018-07-04T21:04:52.551Z,30.2
2018-07-04T21:06:55.492Z,30.2
2018-07-04T21:08:58.948Z,30.2
2018-07-04T21:11:01.791Z,30.1
2018-07-04T21:13:04.860Z,30.2
2018-07-04T21:15:07.708Z,30.3
2018-07-04T21:17:10.549Z,30.4
2018-07-04T21:19:13.393Z,30.5
2018-07-04T21:21:17.284Z,30.5
2018-07-04T21:23:20.122Z,30.5
2018-07-04T21:25:22.976Z,30.5
2018-07-04T21:27:25.818Z,30.4
2018-07-04T21:29:28.658Z,30.5
2018-07-04T21:31:31.560Z,30.4
2018-07-04T21:33:34.441Z,30.4
2018-07-04T21:35:37.283Z,30.4
2018-07-04T21:37:40.140Z,30.5
2018-07-04T21:39:42.986Z,30.5
2018-07-04T21:41:45.828Z,30.5
2018-07-04T21:43:51.763Z,30.5
2018-07-04T21:45:54.602Z,30.5
2018-07-04T21:47:57.495Z,30.5
2018-07-04T21:50:00.351Z,30.6
2018-07-04T21:52:03.371Z,30.6
2018-07-04T21:54:06.217Z,30.6
2018-07-04T21:56:09.071Z,30.7
2018-07-04T21:58:11.926Z,30.7
2018-07-04T22:00:14.776Z,30.6
2018-07-04T22:02:17.630Z,30.7
2018-07-04T22:04:20.606Z,30.8
2018-07-04T22:06:23.818Z,30.7
2018-07-04T22:08:26.671Z,30.8
2018-07-04T22:10:29.510Z,30.8
2018-07-04T22:12:32.352Z,30.8
2018-07-04T22:14:35.230Z,30.8
2018-07-04T22:16:38.077Z,30.9
2018-07-04T22:18:40.919Z,30.8
2018-07-04T22:20:43.762Z,30.9
2018-07-04T22:22:46.617Z,30.8
2018-07-04T22:24:49.469Z,30.8
2018-07-04T22:26:53.254Z,30.9
2018-07-04T22:28:56.095Z,31
2018-07-04T22:30:58.952Z,31
2018-07-04T22:33:01.805Z,31
2018-07-04T22:35:04.649Z,31.1
2018-07-04T22:37:07.497Z,31.1
2018-07-04T22:39:10.350Z,31.2
2018-07-04T22:41:13.219Z,31
2018-07-04T22:43:16.073Z,31.1
2018-07-04T22:45:18.925Z,31
2018-07-04T22:47:25.425Z,30.9
2018-07-04T22:49:28.271Z,30.8
2018-07-04T22:51:31.127Z,30.6
2018-07-04T22:53:33.969Z,30.5
2018-07-04T22:55:36.821Z,30.4
2018-07-04T22:57:39.696Z,30.4
2018-07-04T22:59:42.536Z,30.3
2018-07-04T23:01:45.378Z,30.3
2018-07-04T23:03:51.220Z,30.3
2018-07-04T23:05:54.057Z,30.1
2018-07-04T23:07:56.906Z,30.1
2018-07-04T23:09:59.742Z,30.1
2018-07-04T23:12:02.584Z,30
2018-07-04T23:14:05.429Z,30
2018-07-04T23:16:08.269Z,29.9
2018-07-04T23:18:11.297Z,29.9
2018-07-04T23:20:14.138Z,29.9
2018-07-04T23:22:16.979Z,29.8
2018-07-04T23:24:19.824Z,29.8
2018-07-04T23:26:22.666Z,29.8
2018-07-04T23:28:25.504Z,29.9
2018-07-04T23:30:28.349Z,29.8
2018-07-04T23:32:31.190Z,29.7
2018-07-04T23:34:34.035Z,29.7
2018-07-04T23:36:36.876Z,29.7
2018-07-04T23:38:39.715Z,29.8
2018-07-04T23:40:42.561Z,29.7
2018-07-04T23:42:45.399Z,29.7
2018-07-04T23:44:48.301Z,29.7
2018-07-04T23:46:51.727Z,29.7
2018-07-04T23:48:54.560Z,29.7
2018-07-04T23:50:57.407Z,29.7
2018-07-04T23:53:00.245Z,29.6
2018-07-04T23:55:03.089Z,29.6
2018-07-04T23:57:05.935Z,29.6
2018-07-04T23:59:08.776Z,29.6
